Time;durP1;ratioP1;P1;durP2;ratioP2;P2;SDS_P1;SDS_P2;PMS_P1;PMS_P2;Temp;Humidity;BMP_temperature;BMP_pressure;BME280_temperature;BME280_humidity;BME280_pressure;Samples;Min_cycle;Max_cycle;Signal;HPM_P1;HPM_P2
2024/03/22 00:01:17;;;;;;;108.70;40.70;;;;;;;;;;5039455;28;20032;-55
2024/03/22 00:03:42;;;;;;;111.25;39.90;;;;;;;;;;5042460;28;20028;-51
2024/03/22 00:06:07;;;;;;;109.72;40.40;;;;;;;;;;5052079;28;20035;-48
2024/03/22 00:08:33;;;;;;;105.68;40.03;;;;;;;;;;5039780;28;20031;-52
2024/03/22 00:10:58;;;;;;;107.40;38.75;;;;;;;;;;5041387;28;20032;-54
2024/03/22 00:13:23;;;;;;;107.15;38.55;;;;;;;;;;5039728;28;20039;-48
2024/03/22 00:15:48;;;;;;;100.15;36.33;;;;;;;;;;5042433;28;20029;-47
2024/03/22 00:18:14;;;;;;;116.15;42.63;;;;;;;;;;5039464;28;20029;-50
2024/03/22 00:20:39;;;;;;;102.38;39.63;;;;;;;;;;5049878;28;20506;-54
2024/03/22 00:23:04;;;;;;;87.88;35.65;;;;;;;;;;5039301;28;20511;-49
2024/03/22 00:25:30;;;;;;;105.90;38.08;;;;;;;;;;5041524;28;20036;-51
2024/03/22 00:27:55;;;;;;;94.72;37.88;;;;;;;;;;5039737;28;20511;-55
2024/03/22 00:30:20;;;;;;;103.85;37.47;;;;;;;;;;5039582;28;20383;-50
2024/03/22 00:32:46;;;;;;;101.50;37.42;;;;;;;;;;5041865;28;20032;-48
2024/03/22 00:35:11;;;;;;;107.53;36.85;;;;;;;;;;5043504;28;20028;-53
2024/03/22 00:37:36;;;;;;;97.93;38.10;;;;;;;;;;5039841;28;21172;-48
2024/03/22 00:40:02;;;;;;;93.93;33.13;;;;;;;;;;5039797;28;20032;-51
2024/03/22 00:42:27;;;;;;;93.47;35.45;;;;;;;;;;5042689;28;20866;-53
2024/03/22 00:44:52;;;;;;;86.95;32.47;;;;;;;;;;5042114;28;20075;-50
2024/03/22 00:47:18;;;;;;;87.95;32.72;;;;;;;;;;5039995;28;20474;-52
2024/03/22 00:49:43;;;;;;;91.43;32.50;;;;;;;;;;5042509;28;20055;-55
2024/03/22 00:52:08;;;;;;;83.22;33.05;;;;;;;;;;5039979;28;20417;-50
2024/03/22 00:54:33;;;;;;;79.55;31.10;;;;;;;;;;5043085;28;20035;-50
2024/03/22 00:56:59;;;;;;;82.30;33.08;;;;;;;;;;5039126;28;20033;-49
2024/03/22 00:59:24;;;;;;;78.30;33.60;;;;;;;;;;5047556;28;20400;-51
2024/03/22 01:01:49;;;;;;;90.97;34.88;;;;;;;;;;5030356;28;20040;-47
2024/03/22 01:04:14;;;;;;;83.22;32.78;;;;;;;;;;5040587;28;20043;-49
2024/03/22 01:06:40;;;;;;;85.90;35.47;;;;;;;;;;5037735;28;20040;-54
2024/03/22 01:09:05;;;;;;;84.15;35.20;;;;;;;;;;5039496;28;20048;-53
2024/03/22 01:11:31;;;;;;;85.90;34.55;;;;;;;;;;5042770;28;20443;-53
2024/03/22 01:13:56;;;;;;;89.45;34.83;;;;;;;;;;5040558;28;20020;-51
2024/03/22 01:16:22;;;;;;;79.68;31.65;;;;;;;;;;5049881;28;20884;-49
2024/03/22 01:18:47;;;;;;;90.00;33.10;;;;;;;;;;5039998;28;20032;-54
2024/03/22 01:21:12;;;;;;;82.68;29.70;;;;;;;;;;5035506;28;20028;-47
2024/03/22 01:23:37;;;;;;;73.95;30.90;;;;;;;;;;5038016;28;20286;-52
2024/03/22 01:26:03;;;;;;;84.00;31.77;;;;;;;;;;5040996;28;20488;-53
2024/03/22 01:28:28;;;;;;;76.50;31.00;;;;;;;;;;5013143;28;20052;-46
2024/03/22 01:30:53;;;;;;;73.85;28.92;;;;;;;;;;5013757;28;20521;-48
2024/03/22 01:33:19;;;;;;;77.90;31.38;;;;;;;;;;5014747;28;20048;-53
2024/03/22 01:35:44;;;;;;;73.35;30.90;;;;;;;;;;5013422;28;20068;-52
2024/03/22 01:38:09;;;;;;;78.72;29.77;;;;;;;;;;5012649;28;20251;-48
2024/03/22 01:40:34;;;;;;;75.00;29.98;;;;;;;;;;5014829;28;22950;-50
2024/03/22 01:43:00;;;;;;;78.80;32.30;;;;;;;;;;5017234;28;20052;-54
2024/03/22 01:45:25;;;;;;;83.15;33.35;;;;;;;;;;5017860;28;20464;-54
2024/03/22 01:47:53;;;;;;;79.43;32.67;;;;;;;;;;5016881;28;20033;-49
2024/03/22 01:50:18;;;;;;;77.80;35.05;;;;;;;;;;5018543;28;20589;-51
2024/03/22 01:52:44;;;;;;;78.18;31.10;;;;;;;;;;5016939;28;20040;-54
2024/03/22 01:55:09;;;;;;;87.88;34.83;;;;;;;;;;5017713;28;20894;-49
2024/03/22 01:57:35;;;;;;;79.47;33.33;;;;;;;;;;5016769;28;20449;-50
2024/03/22 02:00:01;;;;;;;81.05;32.28;;;;;;;;;;5035203;28;20085;-51
2024/03/22 02:02:26;;;;;;;77.10;32.92;;;;;;;;;;5042917;28;20036;-53
2024/03/22 02:04:51;;;;;;;77.90;33.88;;;;;;;;;;5041159;28;20616;-50
2024/03/22 02:07:17;;;;;;;77.97;32.17;;;;;;;;;;5041437;28;20505;-52
2024/03/22 02:09:42;;;;;;;75.82;32.90;;;;;;;;;;5043518;28;20028;-49
2024/03/22 02:12:08;;;;;;;81.68;32.08;;;;;;;;;;5044031;28;20024;-49
2024/03/22 02:14:33;;;;;;;79.43;30.85;;;;;;;;;;5041821;28;20029;-48
2024/03/22 02:16:59;;;;;;;74.80;31.77;;;;;;;;;;5051959;28;20021;-53
2024/03/22 02:19:24;;;;;;;74.57;31.85;;;;;;;;;;5042018;28;20503;-49
2024/03/22 02:21:49;;;;;;;75.20;29.85;;;;;;;;;;5009103;28;20064;-49
2024/03/22 02:24:14;;;;;;;65.47;30.02;;;;;;;;;;5041152;28;20029;-47
2024/03/22 02:26:40;;;;;;;71.43;28.35;;;;;;;;;;5042496;28;20127;-53
2024/03/22 02:29:05;;;;;;;71.35;30.02;;;;;;;;;;5043386;28;20784;-52
2024/03/22 02:31:32;;;;;;;75.15;28.80;;;;;;;;;;5041473;28;20189;-47
2024/03/22 02:33:57;;;;;;;71.07;29.00;;;;;;;;;;5044064;28;20078;-49
2024/03/22 02:36:22;;;;;;;77.93;31.38;;;;;;;;;;5041598;28;20428;-49
2024/03/22 02:38:48;;;;;;;69.05;29.00;;;;;;;;;;5042962;28;20028;-54
2024/03/22 02:41:13;;;;;;;78.80;31.25;;;;;;;;;;5042219;28;20151;-52
2024/03/22 02:43:38;;;;;;;102.53;35.97;;;;;;;;;;5042016;28;20339;-50
2024/03/22 02:46:04;;;;;;;73.60;32.15;;;;;;;;;;5040485;28;20132;-51
2024/03/22 02:48:31;;;;;;;83.50;33.03;;;;;;;;;;5039996;28;20040;-53
2024/03/22 02:50:57;;;;;;;82.35;31.92;;;;;;;;;;5042503;28;20063;-50
2024/03/22 02:53:22;;;;;;;73.43;30.42;;;;;;;;;;5006435;28;20040;-54
2024/03/22 02:55:48;;;;;;;67.70;28.92;;;;;;;;;;5040581;28;20028;-50
2024/03/22 02:58:13;;;;;;;66.85;28.30;;;;;;;;;;5042251;28;20024;-51
2024/03/22 03:00:38;;;;;;;65.60;28.17;;;;;;;;;;5003810;28;20041;-50
2024/03/22 03:03:07;;;;;;;74.90;28.55;;;;;;;;;;5001713;28;20037;-50
2024/03/22 03:05:32;;;;;;;63.17;27.50;;;;;;;;;;5002377;28;20462;-51
2024/03/22 03:07:58;;;;;;;65.78;28.95;;;;;;;;;;5002046;28;20177;-54
2024/03/22 03:10:23;;;;;;;79.20;29.95;;;;;;;;;;5002449;28;20195;-54
2024/03/22 03:12:48;;;;;;;63.33;27.60;;;;;;;;;;5002017;28;20322;-48
2024/03/22 03:15:14;;;;;;;67.28;28.70;;;;;;;;;;5008224;28;20065;-51
2024/03/22 03:17:39;;;;;;;65.18;26.88;;;;;;;;;;5002877;28;20197;-53
2024/03/22 03:20:10;;;;;;;78.10;29.08;;;;;;;;;;5004240;28;20482;-47
2024/03/22 03:22:35;;;;;;;73.97;30.70;;;;;;;;;;5001070;28;20037;-53
2024/03/22 03:25:00;;;;;;;81.32;31.42;;;;;;;;;;5002533;28;20033;-51
2024/03/22 03:27:26;;;;;;;78.38;30.80;;;;;;;;;;5001790;28;20714;-51
2024/03/22 03:29:51;;;;;;;78.75;31.25;;;;;;;;;;5001867;28;20034;-52
2024/03/22 03:32:16;;;;;;;65.57;28.98;;;;;;;;;;5029830;28;20037;-50
2024/03/22 03:34:41;;;;;;;66.68;29.95;;;;;;;;;;5039602;28;20495;-48
2024/03/22 03:37:07;;;;;;;67.65;27.65;;;;;;;;;;5041342;28;20021;-51
2024/03/22 03:39:32;;;;;;;67.57;28.13;;;;;;;;;;5040129;28;20465;-53
2024/03/22 03:41:57;;;;;;;80.80;31.83;;;;;;;;;;5043822;28;20029;-45
2024/03/22 03:44:22;;;;;;;74.20;30.33;;;;;;;;;;5040326;28;20028;-49
2024/03/22 03:46:48;;;;;;;76.50;30.60;;;;;;;;;;5040497;28;20025;-51
2024/03/22 03:49:13;;;;;;;73.00;30.15;;;;;;;;;;5041841;28;20637;-51
2024/03/22 03:51:38;;;;;;;82.78;30.60;;;;;;;;;;5041825;28;20025;-48
2024/03/22 03:54:04;;;;;;;78.53;30.70;;;;;;;;;;5039743;28;20024;-45
2024/03/22 03:56:29;;;;;;;66.78;29.23;;;;;;;;;;5039854;28;20147;-51
2024/03/22 03:58:54;;;;;;;73.80;28.73;;;;;;;;;;5039372;28;20389;-49
2024/03/22 04:01:20;;;;;;;67.20;27.98;;;;;;;;;;5038746;28;20018;-52
2024/03/22 04:03:45;;;;;;;68.03;28.25;;;;;;;;;;5039872;28;20063;-50
2024/03/22 04:06:10;;;;;;;68.03;28.05;;;;;;;;;;5039233;28;20024;-51
2024/03/22 04:08:36;;;;;;;68.65;30.27;;;;;;;;;;5039668;28;20035;-53
2024/03/22 04:11:02;;;;;;;74.13;30.75;;;;;;;;;;5039153;28;20028;-54
2024/03/22 04:13:28;;;;;;;71.45;28.80;;;;;;;;;;5038561;28;20547;-52
2024/03/22 04:15:53;;;;;;;77.30;28.15;;;;;;;;;;5052089;28;20024;-50
2024/03/22 04:18:19;;;;;;;85.07;29.65;;;;;;;;;;5038550;28;20032;-48
2024/03/22 04:20:57;;;;;;;79.40;28.65;;;;;;;;;;5001959;28;20036;-46
2024/03/22 04:23:23;;;;;;;58.90;26.85;;;;;;;;;;5038976;28;20045;-46
2024/03/22 04:25:52;;;;;;;67.78;29.02;;;;;;;;;;5044892;28;20473;-54
2024/03/22 04:28:17;;;;;;;73.60;28.75;;;;;;;;;;5038359;28;20668;-48
2024/03/22 04:30:43;;;;;;;67.18;27.02;;;;;;;;;;5039864;28;21251;-52
2024/03/22 04:33:08;;;;;;;61.88;28.58;;;;;;;;;;5040228;28;20562;-54
2024/03/22 04:35:33;;;;;;;67.05;27.63;;;;;;;;;;5039949;28;20035;-50
2024/03/22 04:37:58;;;;;;;64.47;27.13;;;;;;;;;;5039383;28;20029;-52
2024/03/22 04:40:24;;;;;;;68.03;25.80;;;;;;;;;;5040791;28;20516;-50
2024/03/22 04:42:49;;;;;;;75.25;27.63;;;;;;;;;;5039678;28;20048;-46
2024/03/22 04:45:15;;;;;;;73.75;27.10;;;;;;;;;;5038411;28;20039;-53
2024/03/22 04:47:40;;;;;;;75.38;25.63;;;;;;;;;;5038215;28;20020;-51
2024/03/22 04:50:06;;;;;;;74.13;27.25;;;;;;;;;;5040005;28;20053;-48
2024/03/22 04:52:31;;;;;;;69.82;27.55;;;;;;;;;;5040028;28;20040;-54
2024/03/22 04:54:56;;;;;;;68.22;26.92;;;;;;;;;;5038412;28;20460;-48
2024/03/22 04:57:22;;;;;;;59.40;26.50;;;;;;;;;;5037758;28;20024;-49
2024/03/22 04:59:47;;;;;;;79.53;28.35;;;;;;;;;;5043012;28;20067;-53
2024/03/22 05:02:12;;;;;;;75.22;26.92;;;;;;;;;;4988720;28;21382;-48
2024/03/22 05:04:37;;;;;;;61.83;26.67;;;;;;;;;;5040981;28;20520;-50
2024/03/22 05:07:03;;;;;;;60.42;26.65;;;;;;;;;;5046553;28;20059;-53
2024/03/22 05:09:28;;;;;;;68.28;28.63;;;;;;;;;;5042405;28;20020;-54
2024/03/22 05:11:53;;;;;;;68.32;27.70;;;;;;;;;;5038706;28;20334;-52
2024/03/22 05:14:19;;;;;;;65.97;27.25;;;;;;;;;;5038013;28;20135;-50
2024/03/22 05:16:44;;;;;;;66.43;27.88;;;;;;;;;;5040297;28;20036;-50
2024/03/22 05:19:10;;;;;;;73.13;29.10;;;;;;;;;;5047558;28;20028;-48
2024/03/22 05:21:35;;;;;;;91.30;30.15;;;;;;;;;;5037844;28;20862;-53
2024/03/22 05:24:00;;;;;;;87.85;30.42;;;;;;;;;;5039198;28;20025;-53
2024/03/22 05:26:25;;;;;;;68.50;29.50;;;;;;;;;;5036961;28;20486;-52
2024/03/22 05:28:51;;;;;;;74.63;28.70;;;;;;;;;;5040209;28;20037;-52
2024/03/22 05:31:16;;;;;;;68.72;29.65;;;;;;;;;;5037780;28;20531;-54
2024/03/22 05:33:41;;;;;;;71.57;29.67;;;;;;;;;;5011486;28;20048;-51
2024/03/22 05:36:07;;;;;;;77.60;28.98;;;;;;;;;;5038109;28;20072;-49
2024/03/22 05:38:32;;;;;;;75.95;28.58;;;;;;;;;;5038381;28;20374;-54
2024/03/22 05:40:57;;;;;;;81.18;30.98;;;;;;;;;;5038233;28;21592;-54
2024/03/22 05:43:22;;;;;;;62.58;27.13;;;;;;;;;;5039577;28;20122;-49
2024/03/22 05:45:48;;;;;;;66.05;27.58;;;;;;;;;;5047856;28;20428;-50
2024/03/22 05:48:13;;;;;;;81.18;28.67;;;;;;;;;;5022879;28;20592;-55
2024/03/22 05:50:38;;;;;;;67.93;29.73;;;;;;;;;;5038421;28;20060;-50
2024/03/22 05:53:04;;;;;;;61.10;26.73;;;;;;;;;;5039373;28;20071;-53
2024/03/22 05:55:31;;;;;;;67.20;26.98;;;;;;;;;;5038026;28;20477;-55
2024/03/22 05:57:56;;;;;;;66.63;28.58;;;;;;;;;;5040042;28;20032;-49
2024/03/22 06:00:21;;;;;;;175.25;55.63;;;;;;;;;;5025188;28;20029;-50
2024/03/22 06:02:47;;;;;;;247.88;67.90;;;;;;;;;;5037681;28;20522;-48
2024/03/22 06:05:12;;;;;;;178.63;54.20;;;;;;;;;;5038050;28;20086;-51
2024/03/22 06:07:41;;;;;;;80.05;33.50;;;;;;;;;;5036052;28;20488;-52
2024/03/22 06:10:08;;;;;;;148.77;47.13;;;;;;;;;;5052188;28;20104;-53
2024/03/22 06:12:33;;;;;;;88.28;28.25;;;;;;;;;;5037016;28;20115;-52
2024/03/22 06:14:58;;;;;;;79.68;27.10;;;;;;;;;;5037364;28;20389;-45
2024/03/22 06:17:24;;;;;;;92.53;28.50;;;;;;;;;;5038123;28;20485;-48
2024/03/22 06:19:49;;;;;;;89.93;31.88;;;;;;;;;;5047222;28;20032;-52
2024/03/22 06:22:14;;;;;;;96.55;32.90;;;;;;;;;;5037718;28;20040;-54
2024/03/22 06:24:39;;;;;;;98.78;32.25;;;;;;;;;;5040199;28;20081;-52
2024/03/22 06:27:05;;;;;;;114.07;35.72;;;;;;;;;;5039538;28;22004;-53
2024/03/22 06:29:30;;;;;;;366.55;89.72;;;;;;;;;;5041573;28;20493;-56
2024/03/22 06:31:55;;;;;;;87.82;30.73;;;;;;;;;;5037586;28;20120;-48
2024/03/22 06:34:21;;;;;;;81.18;30.92;;;;;;;;;;5043111;28;21870;-48
2024/03/22 06:36:47;;;;;;;99.38;30.95;;;;;;;;;;5040891;28;20119;-51
2024/03/22 06:39:12;;;;;;;68.40;26.67;;;;;;;;;;5043869;28;20389;-49
2024/03/22 06:41:37;;;;;;;66.68;26.98;;;;;;;;;;5043121;28;20266;-48
2024/03/22 06:44:03;;;;;;;60.10;25.63;;;;;;;;;;5061361;28;20031;-53
2024/03/22 06:46:28;;;;;;;54.40;24.70;;;;;;;;;;5065583;28;20016;-49
2024/03/22 06:48:54;;;;;;;62.88;23.40;;;;;;;;;;5065227;28;20027;-52
2024/03/22 06:51:19;;;;;;;73.18;25.17;;;;;;;;;;5064479;28;20421;-47
2024/03/22 06:53:47;;;;;;;51.53;20.75;;;;;;;;;;5043026;28;20115;-47
2024/03/22 06:56:13;;;;;;;37.00;19.35;;;;;;;;;;5035898;28;20024;-46
2024/03/22 06:58:38;;;;;;;43.30;19.35;;;;;;;;;;5039099;28;20033;-48
2024/03/22 07:01:04;;;;;;;35.08;16.48;;;;;;;;;;5034787;28;20043;-51
2024/03/22 07:03:29;;;;;;;42.88;20.45;;;;;;;;;;5035649;28;20185;-56
2024/03/22 07:05:55;;;;;;;19.80;11.10;;;;;;;;;;5036750;28;20090;-48
2024/03/22 07:08:20;;;;;;;26.55;14.27;;;;;;;;;;5038698;28;20066;-54
2024/03/22 07:10:45;;;;;;;40.10;17.45;;;;;;;;;;5040750;28;20029;-49
2024/03/22 07:13:11;;;;;;;36.92;17.88;;;;;;;;;;5035572;28;20405;-48
2024/03/22 07:15:37;;;;;;;41.42;17.75;;;;;;;;;;5040164;28;20056;-51
2024/03/22 07:18:03;;;;;;;35.60;17.95;;;;;;;;;;5041135;28;20033;-48
2024/03/22 07:20:28;;;;;;;37.35;17.83;;;;;;;;;;5039424;28;20058;-54
2024/03/22 07:22:53;;;;;;;31.88;18.65;;;;;;;;;;5038830;28;20072;-48
2024/03/22 07:25:19;;;;;;;37.75;19.15;;;;;;;;;;5040811;28;20725;-47
2024/03/22 07:27:46;;;;;;;35.38;18.70;;;;;;;;;;5037800;28;20032;-54
2024/03/22 07:30:11;;;;;;;34.33;18.30;;;;;;;;;;5038382;28;20032;-51
2024/03/22 07:32:37;;;;;;;34.88;18.58;;;;;;;;;;5036433;28;20093;-48
2024/03/22 07:35:03;;;;;;;32.35;18.23;;;;;;;;;;5037503;28;20017;-48
2024/03/22 07:37:28;;;;;;;34.10;18.25;;;;;;;;;;5036980;28;20158;-47
2024/03/22 07:39:53;;;;;;;32.28;17.85;;;;;;;;;;5037387;28;20024;-48
2024/03/22 07:42:18;;;;;;;35.05;17.27;;;;;;;;;;5037199;28;20033;-49
2024/03/22 07:44:44;;;;;;;34.85;17.77;;;;;;;;;;5036117;28;20013;-49
2024/03/22 07:47:09;;;;;;;30.40;16.58;;;;;;;;;;5037652;28;20147;-48
2024/03/22 07:49:34;;;;;;;31.80;17.38;;;;;;;;;;5021946;28;20057;-54
2024/03/22 07:52:00;;;;;;;31.70;17.90;;;;;;;;;;5036023;28;20037;-49
2024/03/22 07:54:25;;;;;;;38.50;17.23;;;;;;;;;;5056686;28;20024;-56
2024/03/22 07:56:50;;;;;;;29.50;16.13;;;;;;;;;;5062963;28;20640;-51
2024/03/22 07:59:16;;;;;;;29.55;16.85;;;;;;;;;;5047747;28;20044;-49
2024/03/22 08:01:41;;;;;;;42.17;18.08;;;;;;;;;;5057555;28;20107;-55
2024/03/22 08:04:06;;;;;;;29.23;16.50;;;;;;;;;;5041543;28;20519;-49
2024/03/22 08:06:32;;;;;;;36.40;16.67;;;;;;;;;;5038956;28;20261;-49
2024/03/22 08:08:57;;;;;;;34.00;17.73;;;;;;;;;;5040327;28;20024;-51
2024/03/22 08:11:22;;;;;;;33.47;16.05;;;;;;;;;;5040297;28;20541;-50
2024/03/22 08:13:47;;;;;;;33.92;15.75;;;;;;;;;;5053292;28;20428;-49
2024/03/22 08:16:13;;;;;;;41.28;17.98;;;;;;;;;;5077070;28;20105;-51
2024/03/22 08:18:38;;;;;;;32.45;16.70;;;;;;;;;;5058340;28;20047;-55
2024/03/22 08:21:04;;;;;;;34.30;16.80;;;;;;;;;;5037637;28;20052;-50
2024/03/22 08:23:29;;;;;;;30.77;16.65;;;;;;;;;;5039330;28;20046;-52
2024/03/22 08:25:54;;;;;;;30.37;16.23;;;;;;;;;;5021596;28;20738;-56
2024/03/22 08:28:20;;;;;;;30.73;17.17;;;;;;;;;;5024572;28;20630;-48
2024/03/22 08:30:45;;;;;;;29.30;17.13;;;;;;;;;;5038792;28;20128;-55
2024/03/22 08:33:11;;;;;;;29.35;16.60;;;;;;;;;;5060033;28;20105;-57
2024/03/22 08:35:36;;;;;;;34.42;16.85;;;;;;;;;;5054003;28;20037;-50
2024/03/22 08:38:02;;;;;;;45.65;16.95;;;;;;;;;;5034406;28;21020;-49
2024/03/22 08:40:28;;;;;;;33.90;17.30;;;;;;;;;;5037615;28;20115;-49
2024/03/22 08:42:53;;;;;;;29.70;16.15;;;;;;;;;;5034241;28;22393;-52
2024/03/22 08:45:18;;;;;;;30.08;16.20;;;;;;;;;;5038143;28;20031;-55
2024/03/22 08:47:45;;;;;;;31.50;16.98;;;;;;;;;;5032304;28;20036;-52
2024/03/22 08:50:11;;;;;;;30.33;16.38;;;;;;;;;;5031236;28;20067;-49
2024/03/22 08:52:36;;;;;;;32.10;17.63;;;;;;;;;;5032912;28;20482;-51
2024/03/22 08:55:02;;;;;;;29.85;17.17;;;;;;;;;;5032137;28;20126;-48
2024/03/22 08:57:27;;;;;;;29.88;14.43;;;;;;;;;;5037015;28;20074;-55
2024/03/22 08:59:52;;;;;;;29.38;16.00;;;;;;;;;;5032828;28;20051;-49
2024/03/22 09:02:18;;;;;;;30.38;15.93;;;;;;;;;;5040522;28;20554;-48
2024/03/22 09:04:43;;;;;;;31.92;15.00;;;;;;;;;;5036005;28;20028;-55
2024/03/22 09:07:08;;;;;;;30.63;16.30;;;;;;;;;;5034189;28;20056;-56
2024/03/22 09:09:34;;;;;;;28.47;16.27;;;;;;;;;;5034263;28;21245;-48
2024/03/22 09:11:59;;;;;;;30.45;15.90;;;;;;;;;;5031068;28;20296;-50
2024/03/22 09:14:24;;;;;;;25.42;13.65;;;;;;;;;;5032203;28;20054;-53
2024/03/22 09:16:49;;;;;;;28.77;16.47;;;;;;;;;;5032861;28;20059;-50
2024/03/22 09:19:15;;;;;;;33.63;16.43;;;;;;;;;;5035565;28;20297;-48
2024/03/22 09:21:40;;;;;;;28.13;15.33;;;;;;;;;;5033096;28;21664;-52
2024/03/22 09:24:05;;;;;;;30.67;16.03;;;;;;;;;;5034761;28;20270;-57
2024/03/22 09:26:31;;;;;;;29.77;15.60;;;;;;;;;;5035148;28;20344;-49
2024/03/22 09:28:57;;;;;;;30.88;17.17;;;;;;;;;;5035519;28;20059;-52
2024/03/22 09:31:22;;;;;;;24.33;14.10;;;;;;;;;;5034005;28;20461;-57
2024/03/22 09:33:47;;;;;;;24.33;14.53;;;;;;;;;;5036467;28;20265;-53
2024/03/22 09:36:13;;;;;;;24.63;14.50;;;;;;;;;;5033870;28;20872;-53
2024/03/22 09:38:38;;;;;;;26.27;13.53;;;;;;;;;;5011095;28;20274;-49
2024/03/22 09:41:04;;;;;;;27.08;15.13;;;;;;;;;;5033530;28;20289;-50
2024/03/22 09:43:30;;;;;;;24.65;13.65;;;;;;;;;;5034820;28;20061;-57
2024/03/22 09:45:56;;;;;;;27.02;12.95;;;;;;;;;;5033054;28;20029;-51
2024/03/22 09:48:22;;;;;;;23.98;12.98;;;;;;;;;;5017367;28;20028;-53
2024/03/22 09:50:47;;;;;;;20.00;10.23;;;;;;;;;;5035480;28;20041;-52
2024/03/22 09:53:13;;;;;;;20.85;12.48;;;;;;;;;;5035399;28;20876;-53
2024/03/22 09:55:43;;;;;;;29.30;13.63;;;;;;;;;;5034368;28;20184;-52
2024/03/22 09:58:09;;;;;;;23.40;12.77;;;;;;;;;;5031376;28;20565;-49
2024/03/22 10:00:34;;;;;;;24.38;13.85;;;;;;;;;;5037820;28;20033;-55
2024/03/22 10:03:00;;;;;;;24.52;13.70;;;;;;;;;;5037683;28;20622;-52
2024/03/22 10:05:25;;;;;;;36.92;21.95;;;;;;;;;;5009402;28;20603;-55
2024/03/22 10:07:51;;;;;;;25.27;14.07;;;;;;;;;;5037003;28;20046;-49
2024/03/22 10:10:16;;;;;;;25.30;13.88;;;;;;;;;;5038226;28;20153;-54
2024/03/22 10:12:42;;;;;;;24.65;11.48;;;;;;;;;;5022123;28;20071;-55
2024/03/22 10:15:11;;;;;;;27.35;12.13;;;;;;;;;;5040778;28;20057;-51
2024/03/22 10:17:36;;;;;;;21.02;12.63;;;;;;;;;;5043411;28;20389;-48
2024/03/22 10:20:02;;;;;;;27.13;12.55;;;;;;;;;;5043902;28;20451;-54
2024/03/22 10:22:27;;;;;;;22.80;11.93;;;;;;;;;;5040217;28;20045;-54
2024/03/22 10:24:53;;;;;;;21.25;12.88;;;;;;;;;;5042747;28;20035;-55
2024/03/22 10:27:18;;;;;;;20.05;11.60;;;;;;;;;;5040184;28;20354;-54
2024/03/22 10:29:44;;;;;;;19.83;12.18;;;;;;;;;;5044084;28;20155;-50
2024/03/22 10:32:10;;;;;;;25.77;14.05;;;;;;;;;;5043707;28;20032;-54
2024/03/22 10:34:35;;;;;;;21.75;13.13;;;;;;;;;;5041565;28;20718;-53
2024/03/22 10:37:03;;;;;;;20.77;12.65;;;;;;;;;;5040740;28;20032;-54
2024/03/22 10:39:30;;;;;;;22.88;13.52;;;;;;;;;;5041968;28;20028;-51
2024/03/22 10:41:55;;;;;;;22.70;13.25;;;;;;;;;;5025563;28;20035;-55
2024/03/22 10:44:21;;;;;;;21.13;11.65;;;;;;;;;;5042927;28;20029;-50
2024/03/22 10:46:47;;;;;;;21.75;12.52;;;;;;;;;;5039272;28;20032;-53
2024/03/22 10:49:16;;;;;;;21.35;12.50;;;;;;;;;;5039127;28;20110;-56
2024/03/22 10:51:43;;;;;;;20.90;12.00;;;;;;;;;;5039151;28;20037;-51
2024/03/22 10:54:08;;;;;;;23.42;13.65;;;;;;;;;;5042811;28;20037;-53
2024/03/22 10:56:34;;;;;;;24.20;12.55;;;;;;;;;;5040360;28;20082;-49
2024/03/22 10:59:03;;;;;;;22.98;12.38;;;;;;;;;;5046793;28;20538;-52
2024/03/22 11:01:36;;;;;;;21.60;12.77;;;;;;;;;;5036617;28;20048;-53
2024/03/22 11:04:09;;;;;;;19.33;12.43;;;;;;;;;;5041777;28;20516;-55
2024/03/22 11:06:36;;;;;;;14.20;8.40;;;;;;;;;;5040360;28;20080;-54
2024/03/22 11:09:04;;;;;;;19.20;11.63;;;;;;;;;;5027533;28;20485;-54
2024/03/22 11:11:31;;;;;;;18.65;10.77;;;;;;;;;;5040077;28;20070;-58
2024/03/22 11:13:56;;;;;;;21.63;12.07;;;;;;;;;;5038151;28;20028;-53
2024/03/22 11:16:22;;;;;;;20.48;10.95;;;;;;;;;;5041964;28;20377;-52
2024/03/22 11:18:48;;;;;;;21.20;11.88;;;;;;;;;;5038640;28;20035;-53
2024/03/22 11:21:14;;;;;;;21.98;13.02;;;;;;;;;;5040278;28;20040;-55
2024/03/22 11:23:39;;;;;;;22.48;12.73;;;;;;;;;;5036505;28;20035;-53
2024/03/22 11:26:06;;;;;;;19.17;11.88;;;;;;;;;;5003418;28;20437;-50
2024/03/22 11:28:31;;;;;;;25.10;11.23;;;;;;;;;;5040457;28;20032;-52
2024/03/22 11:30:57;;;;;;;24.17;12.13;;;;;;;;;;5022607;28;20406;-50
2024/03/22 11:33:22;;;;;;;22.45;14.23;;;;;;;;;;5040068;28;20769;-55
2024/03/22 11:35:49;;;;;;;23.05;13.13;;;;;;;;;;5022052;28;20055;-54
2024/03/22 11:38:15;;;;;;;27.58;13.25;;;;;;;;;;5021571;28;20041;-54
2024/03/22 11:40:40;;;;;;;27.83;15.27;;;;;;;;;;5022843;28;20043;-55
2024/03/22 11:43:05;;;;;;;21.33;12.32;;;;;;;;;;5022012;28;20040;-49
2024/03/22 11:45:33;;;;;;;19.70;11.18;;;;;;;;;;5020794;28;20167;-51
2024/03/22 11:48:01;;;;;;;22.90;12.30;;;;;;;;;;5019826;28;20053;-53
2024/03/22 11:50:26;;;;;;;35.27;17.90;;;;;;;;;;5017337;28;20053;-52
2024/03/22 11:52:52;;;;;;;21.83;13.13;;;;;;;;;;5017076;28;20251;-51
2024/03/22 11:55:18;;;;;;;21.40;11.63;;;;;;;;;;5014432;28;20340;-53
2024/03/22 11:57:47;;;;;;;23.17;13.80;;;;;;;;;;5002337;28;20303;-54
2024/03/22 12:00:13;;;;;;;21.77;12.68;;;;;;;;;;5020392;28;20037;-49
2024/03/22 12:02:38;;;;;;;22.50;13.07;;;;;;;;;;5021205;28;20444;-54
2024/03/22 12:05:04;;;;;;;17.85;9.52;;;;;;;;;;5020961;28;20037;-50
2024/03/22 12:07:30;;;;;;;20.45;10.68;;;;;;;;;;5017066;28;20484;-52
2024/03/22 12:09:55;;;;;;;22.20;11.40;;;;;;;;;;5036140;28;20036;-49
2024/03/22 12:12:21;;;;;;;32.85;10.25;;;;;;;;;;5039014;28;20036;-54
2024/03/22 12:14:47;;;;;;;27.60;10.23;;;;;;;;;;5042501;28;20021;-53
2024/03/22 12:17:12;;;;;;;20.40;11.05;;;;;;;;;;5024984;28;20143;-57
2024/03/22 12:19:37;;;;;;;21.70;10.07;;;;;;;;;;5056251;28;20536;-55
2024/03/22 12:22:03;;;;;;;21.07;11.33;;;;;;;;;;5039624;28;20261;-52
2024/03/22 12:24:28;;;;;;;18.17;10.55;;;;;;;;;;5039594;28;20978;-52
2024/03/22 12:26:53;;;;;;;15.15;8.38;;;;;;;;;;5037714;28;20037;-58
2024/03/22 12:29:19;;;;;;;23.23;9.38;;;;;;;;;;5035292;28;20021;-52
2024/03/22 12:31:44;;;;;;;18.77;9.50;;;;;;;;;;5004523;28;20923;-56
2024/03/22 12:34:10;;;;;;;15.68;9.95;;;;;;;;;;5040033;28;20028;-53
2024/03/22 12:36:35;;;;;;;16.88;9.50;;;;;;;;;;5039145;28;20532;-51
2024/03/22 12:39:00;;;;;;;14.07;9.80;;;;;;;;;;5035811;28;20029;-56
2024/03/22 12:41:26;;;;;;;19.02;9.80;;;;;;;;;;5038925;28;20120;-49
2024/03/22 12:43:51;;;;;;;14.68;9.57;;;;;;;;;;5037379;28;20440;-54
2024/03/22 12:46:17;;;;;;;18.40;10.57;;;;;;;;;;5041435;28;20519;-48
2024/03/22 12:48:42;;;;;;;17.70;10.40;;;;;;;;;;5037617;28;20265;-56
2024/03/22 12:51:07;;;;;;;18.88;9.45;;;;;;;;;;5038895;28;20528;-55
2024/03/22 12:53:34;;;;;;;17.38;10.30;;;;;;;;;;5040449;28;20049;-54
2024/03/22 12:55:59;;;;;;;16.27;10.27;;;;;;;;;;5037889;28;20037;-52
2024/03/22 12:58:25;;;;;;;20.30;10.57;;;;;;;;;;5037760;28;20490;-49
2024/03/22 13:00:50;;;;;;;13.95;8.80;;;;;;;;;;5041047;28;20838;-53
2024/03/22 13:03:15;;;;;;;18.73;10.10;;;;;;;;;;5037392;28;20126;-57
2024/03/22 13:05:41;;;;;;;17.90;9.93;;;;;;;;;;5037952;28;20461;-51
2024/03/22 13:08:07;;;;;;;16.23;11.30;;;;;;;;;;5037194;28;20024;-49
2024/03/22 13:10:32;;;;;;;16.38;10.93;;;;;;;;;;5024872;28;20043;-56
2024/03/22 13:12:58;;;;;;;20.65;11.90;;;;;;;;;;5037519;28;20028;-53
2024/03/22 13:15:23;;;;;;;15.65;10.38;;;;;;;;;;5043736;28;21152;-54
2024/03/22 13:17:48;;;;;;;16.00;10.52;;;;;;;;;;5037218;28;20037;-56
2024/03/22 13:20:15;;;;;;;16.27;10.60;;;;;;;;;;5029906;28;20489;-51
2024/03/22 13:22:40;;;;;;;15.48;10.32;;;;;;;;;;5037311;28;20773;-52
2024/03/22 13:25:06;;;;;;;18.42;10.02;;;;;;;;;;5038484;28;20035;-53
2024/03/22 13:27:32;;;;;;;15.85;10.02;;;;;;;;;;5039102;28;20451;-49
2024/03/22 13:29:57;;;;;;;18.60;11.27;;;;;;;;;;5038557;28;20091;-55
2024/03/22 13:32:23;;;;;;;20.77;11.98;;;;;;;;;;5036570;28;20137;-49
2024/03/22 13:34:50;;;;;;;15.30;10.17;;;;;;;;;;5022878;28;20120;-55
2024/03/22 13:37:15;;;;;;;15.82;9.38;;;;;;;;;;5040727;28;20269;-53
2024/03/22 13:39:41;;;;;;;22.40;12.32;;;;;;;;;;5018937;28;20049;-50
2024/03/22 13:42:06;;;;;;;25.02;12.35;;;;;;;;;;5016023;28;20320;-54
2024/03/22 13:44:34;;;;;;;20.67;12.80;;;;;;;;;;5016326;28;21049;-57
2024/03/22 13:46:59;;;;;;;28.23;14.32;;;;;;;;;;5015347;28;20135;-56
2024/03/22 13:49:25;;;;;;;18.17;12.13;;;;;;;;;;5003545;28;20036;-49
2024/03/22 13:51:50;;;;;;;20.85;12.40;;;;;;;;;;5014559;28;20822;-55
2024/03/22 13:54:15;;;;;;;20.13;12.48;;;;;;;;;;5016731;28;20037;-52
2024/03/22 13:56:41;;;;;;;20.85;11.73;;;;;;;;;;5016065;28;20612;-51
2024/03/22 13:59:08;;;;;;;16.48;11.27;;;;;;;;;;5015509;28;20475;-55
2024/03/22 14:01:33;;;;;;;24.50;11.82;;;;;;;;;;5017765;28;20119;-56
2024/03/22 14:03:59;;;;;;;14.93;9.75;;;;;;;;;;5020361;28;21676;-51
2024/03/22 14:06:24;;;;;;;20.40;10.57;;;;;;;;;;5017794;28;20416;-54